Grissom ARB Airport
KGUS : now visible

Airfield :











YOU CAN JOIN US ON...

 
LOGIN :

Register | Disclaimer

   EN    FR    IT 

 









Legend :    VFR   Marginal VFR   IFR   Intensive IFR   Very Intensive IFR
Visi :
Ceiling :
>= 8 km
>= 3000ft
5 to 8 km
1000 to 3000 ft
1500m to 5 km
500 to 1000 ft
800 to 1500m
200 to 500 ft
< 800m
< 200 ft
Symbols :   Thunderstorms  Fog  Heavy snow  Heavy precipitations  Wind > 20 kt






- Airport Elevation : 812 ft


KGUS - Grissom ARB

CURRENT METAR :
  • 140756Z AUTO 22005KT 10SM OVC080 M02/M05 A3010 RMK AO2 SLP207 T10201048 $

EXPIRED METARs :
  • 140656Z AUTO 21004KT 10SM OVC090 M02/M05 A3010 RMK AO2 SLP207 T10241049 $
  • 140556Z AUTO 20004KT 10SM BKN100 OVC130 M03/M05 A3011 RMK AO2 SLP211 T10261054 11024 21037 57004 $

TAF TAF KGUS
Valid from the 14 at 03:00 until the 15 at 09:00 UTC


140300Z 1403/1509 22009KT 9999 BKN030 OVC055 QNH3008INS
BECMG 1411/1412 22006KT 9999 SCT045 BKN060 OVC080 620602 QNH3013INS
BECMG 1422/1423 29006KT 9999 SCT006 OVC015 620152 QNH3020INS
BECMG 1504/1505 28009KT 6000 BR BKN006 OVC015 620062 QNH3026INS TX01/1420Z TNM03/1408Z



MET'MAP, your aeronautical weather chart ! - Copyright ORBIFLY December 2007 - Disclaimer

ORBIFLY MET'MAP TEAM :

Programming & Development : Alexandra Zaïnal
Concept & Development : Baudouin d'Aumeries
Co-Development & Prog : Marc-Olivier Méhu
Technical & hardware support : Manuel Goepfert

Contact : metmap@orbifly.com




SOURCES & CREDITS :

   NOAA       Earth
Advisory